Time;durP1;ratioP1;P1;durP2;ratioP2;P2;SDS_P1;SDS_P2;PMS_P1;PMS_P2;Temp;Humidity;BMP_temperature;BMP_pressure;BME280_temperature;BME280_humidity;BME280_pressure;Samples;Min_cycle;Max_cycle;Signal;HPM_P1;HPM_P2
2022/05/18 00:00:00;;;;;;;27.17;19.17;;;20.40;99.90;;;20.69;71.75;101703.69;4861091;29;20559;-61
2022/05/18 00:02:37;;;;;;;23.42;19.73;;;20.30;99.90;;;20.91;71.63;101703.00;4861123;29;20141;-61
2022/05/18 00:05:06;;;;;;;36.50;23.30;;;20.40;99.90;;;20.88;71.01;101701.31;4861148;29;20045;-61
2022/05/18 00:07:34;;;;;;;27.73;21.55;;;20.40;99.90;;;20.91;71.07;101713.75;4860711;29;20072;-61
2022/05/18 00:10:03;;;;;;;30.05;23.02;;;20.40;99.90;;;20.81;70.29;101709.63;4860614;29;20065;-61
2022/05/18 00:12:33;;;;;;;31.10;23.60;;;20.30;99.90;;;20.60;70.45;101704.00;4860508;29;20148;-61
2022/05/18 00:15:01;;;;;;;32.10;23.38;;;20.20;99.90;;;20.59;70.69;101718.41;4860465;29;20558;-62
2022/05/18 00:17:30;;;;;;;37.55;25.27;;;20.10;99.90;;;20.49;70.91;101710.66;4860420;29;20073;-61
2022/05/18 00:19:58;;;;;;;34.00;26.25;;;20.10;99.90;;;20.33;71.39;101709.38;4860823;29;20052;-61
2022/05/18 00:22:26;;;;;;;40.22;28.40;;;20.00;99.90;;;20.40;71.60;101721.72;4860297;29;20483;-60
2022/05/18 00:24:55;;;;;;;39.83;30.20;;;20.00;99.90;;;20.36;71.79;101718.22;4860742;29;20161;-61
2022/05/18 00:27:23;;;;;;;40.38;29.85;;;20.00;99.90;;;20.45;71.76;101722.44;4860218;29;20407;-61
2022/05/18 00:29:53;;;;;;;57.30;43.50;;;20.00;99.90;;;20.30;71.89;101699.63;4859072;29;20152;-60
2022/05/18 00:32:21;;;;;;;49.83;36.60;;;20.10;99.90;;;20.39;71.92;101720.81;4859031;29;20057;-61
2022/05/18 00:34:49;;;;;;;40.25;29.95;;;20.00;99.90;;;20.42;71.98;101714.50;4859417;29;20433;-61
2022/05/18 00:37:18;;;;;;;39.50;28.60;;;20.00;99.90;;;20.42;72.06;101709.09;4860321;29;20515;-61
2022/05/18 00:39:46;;;;;;;31.00;25.95;;;20.00;99.90;;;20.28;72.67;101708.66;4860470;29;20140;-61
2022/05/18 00:42:19;;;;;;;29.75;23.20;;;19.90;99.90;;;20.01;73.45;101679.91;4860003;29;20056;-61
2022/05/18 00:44:48;;;;;;;31.58;23.10;;;19.80;99.90;;;20.35;73.08;101704.84;4860209;29;20076;-60
2022/05/18 00:47:20;;;;;;;27.63;21.48;;;19.90;99.90;;;20.41;72.56;101701.97;4859842;29;20046;-60
2022/05/18 00:50:00;;;;;;;27.98;22.00;;;20.00;99.90;;;20.36;72.82;101704.78;4860190;29;20456;-61
2022/05/18 00:52:34;;;;;;;34.08;22.40;;;20.00;99.90;;;20.20;72.58;101673.06;4860141;29;20412;-61
2022/05/18 00:55:03;;;;;;;29.13;20.98;;;20.00;99.90;;;20.48;72.25;101703.50;4859676;29;20060;-61
2022/05/18 00:57:37;;;;;;;32.38;22.10;;;20.10;99.90;;;20.51;71.80;101706.13;4859728;29;20045;-61
2022/05/18 01:00:10;;;;;;;30.25;19.98;;;20.10;99.90;;;20.68;71.50;101706.44;4859954;29;20225;-60
2022/05/18 01:02:46;;;;;;;27.25;21.20;;;20.20;99.90;;;20.59;71.37;101706.75;4859957;29;20069;-63
2022/05/18 01:05:22;;;;;;;34.30;21.65;;;20.20;99.90;;;20.42;71.63;101699.22;4859791;29;20521;-61
2022/05/18 01:07:54;;;;;;;31.00;21.00;;;20.10;99.90;;;20.40;71.97;101703.75;4860230;29;20488;-61
2022/05/18 01:10:23;;;;;;;32.72;21.13;;;20.10;99.90;;;20.27;72.43;101699.69;4859676;29;20049;-60
2022/05/18 01:12:51;;;;;;;31.45;21.27;;;20.00;99.90;;;20.25;72.67;101701.56;4859537;29;20041;-60
2022/05/18 01:15:22;;;;;;;28.85;21.17;;;19.90;99.90;;;20.19;72.87;101698.19;4859593;29;20050;-61
2022/05/18 01:17:58;;;;;;;27.58;21.40;;;19.90;99.90;;;20.21;72.88;101707.09;4859984;29;20113;-61
2022/05/18 01:20:31;;;;;;;28.75;21.08;;;19.90;99.90;;;20.10;73.13;101699.31;4860056;29;20076;-61
2022/05/18 01:23:21;;;;;;;28.75;23.65;;;19.80;99.90;;;20.06;72.82;101707.50;4859530;29;20666;-61
2022/05/18 01:26:03;;;;;;;31.52;21.50;;;19.70;99.90;;;20.09;72.84;101710.09;4859600;29;20045;-61
2022/05/18 01:28:38;;;;;;;30.42;21.65;;;19.70;99.90;;;19.98;72.71;101696.97;4859515;29;20511;-61
2022/05/18 01:31:07;;;;;;;32.08;22.98;;;19.70;99.90;;;19.95;72.93;101694.41;4859704;29;20571;-61
2022/05/18 01:33:36;;;;;;;32.83;23.92;;;19.60;99.90;;;19.93;72.71;101692.69;4859955;29;20173;-61
2022/05/18 01:36:06;;;;;;;33.33;25.38;;;19.60;99.90;;;19.90;72.40;101695.47;4859491;29;20045;-61
2022/05/18 01:38:35;;;;;;;35.67;25.97;;;19.50;99.90;;;19.84;71.74;101691.13;4859517;29;20045;-60
2022/05/18 01:41:10;;;;;;;31.65;23.42;;;19.50;99.90;;;19.73;72.08;101690.56;4859402;29;20041;-61
2022/05/18 01:43:43;;;;;;;33.47;24.20;;;19.40;99.90;;;19.70;71.24;101694.22;4858358;29;20053;-61
2022/05/18 01:46:15;;;;;;;32.60;22.70;;;19.30;99.90;;;19.73;70.78;101679.84;4860536;29;20125;-62
2022/05/18 01:48:49;;;;;;;29.55;23.05;;;19.40;99.90;;;19.71;70.05;101689.72;4862219;29;20555;-61
2022/05/18 01:51:29;;;;;;;33.20;23.67;;;19.30;99.90;;;19.54;71.11;101684.88;4863306;29;20128;-61
2022/05/18 01:53:57;;;;;;;41.33;27.27;;;19.20;99.90;;;19.44;71.07;101687.81;4862980;29;20049;-62
2022/05/18 01:56:26;;;;;;;31.40;22.52;;;19.10;99.90;;;19.36;71.17;101685.34;4862877;29;20046;-61
2022/05/18 01:58:55;;;;;;;30.73;21.17;;;19.00;99.90;;;19.34;71.49;101672.91;4862889;29;20045;-61
2022/05/18 02:01:24;;;;;;;27.65;21.23;;;19.00;99.90;;;19.35;71.48;101680.03;4862844;29;20144;-61
2022/05/18 02:03:53;;;;;;;26.90;19.92;;;19.00;99.90;;;19.42;70.94;101679.81;4862854;29;20594;-61
2022/05/18 02:06:22;;;;;;;27.40;20.60;;;19.10;99.90;;;19.43;70.53;101678.91;4862724;29;20109;-61
2022/05/18 02:08:50;;;;;;;28.85;19.33;;;19.10;99.90;;;19.46;70.43;101680.63;4863158;29;20056;-60
2022/05/18 02:11:21;;;;;;;26.13;20.17;;;19.10;99.90;;;19.51;69.72;101682.25;4863030;29;20052;-62
2022/05/18 02:13:51;;;;;;;27.35;20.27;;;19.20;99.90;;;19.64;69.19;101686.38;4863086;29;20041;-60
2022/05/18 02:16:21;;;;;;;27.83;20.83;;;19.30;99.90;;;19.62;68.85;101671.22;4862779;29;20045;-61
2022/05/18 02:18:49;;;;;;;31.83;21.48;;;19.40;99.90;;;19.90;68.38;101692.78;4862457;29;20053;-61
2022/05/18 02:21:18;;;;;;;31.05;22.60;;;19.50;99.90;;;19.74;67.96;101668.19;4862327;29;20049;-60
2022/05/18 02:23:46;;;;;;;34.00;23.30;;;19.60;99.90;;;19.85;68.22;101695.59;4862358;29;20519;-61
2022/05/18 02:26:18;;;;;;;28.42;22.42;;;19.60;99.90;;;19.73;68.49;101699.50;4862377;29;20148;-61
2022/05/18 02:28:47;;;;;;;26.50;20.17;;;19.50;99.90;;;19.67;68.73;101685.38;4862618;29;20238;-61
2022/05/18 02:31:16;;;;;;;29.40;20.60;;;19.40;99.90;;;19.88;68.38;101695.50;4862387;29;20038;-61
2022/05/18 02:33:46;;;;;;;31.50;20.70;;;19.50;99.90;;;20.04;68.17;101704.88;4862279;29;20064;-61
2022/05/18 02:36:14;;;;;;;31.02;22.05;;;19.70;99.90;;;19.95;68.19;101713.22;4862255;29;20500;-61
2022/05/18 02:38:44;;;;;;;32.42;21.85;;;19.70;99.90;;;19.89;68.42;101713.38;4862205;29;20419;-60
2022/05/18 02:41:12;;;;;;;25.80;19.83;;;19.60;99.90;;;19.93;68.36;101706.09;4862119;29;20041;-61
2022/05/18 02:43:40;;;;;;;29.80;20.23;;;19.60;99.90;;;19.97;68.11;101719.41;4862012;29;20080;-61
2022/05/18 02:46:13;;;;;;;24.13;18.88;;;19.60;99.90;;;20.22;67.53;101733.03;4861992;29;20060;-61
2022/05/18 02:48:43;;;;;;;24.95;19.73;;;19.80;99.90;;;20.29;67.63;101735.47;4862083;29;20113;-62
2022/05/18 02:51:14;;;;;;;26.13;18.30;;;19.90;99.90;;;20.44;67.67;101735.00;4862587;29;20084;-61
2022/05/18 02:53:43;;;;;;;26.52;20.63;;;20.00;99.90;;;20.48;67.12;101736.66;4862119;29;20148;-62
2022/05/18 02:56:14;;;;;;;25.13;19.65;;;20.10;99.90;;;20.56;66.88;101747.16;4862112;29;20045;-61
2022/05/18 02:58:46;;;;;;;24.08;19.50;;;20.10;99.90;;;20.54;66.94;101736.47;4860895;29;20050;-61
2022/05/18 03:01:18;;;;;;;27.90;19.83;;;20.10;99.90;;;20.53;66.82;101741.91;4862014;29;20045;-61
2022/05/18 03:03:47;;;;;;;24.83;19.92;;;20.10;99.90;;;20.26;67.65;101735.59;4862106;29;20049;-61
2022/05/18 03:06:20;;;;;;;27.58;20.95;;;20.00;99.90;;;20.19;68.32;101739.34;4861999;29;20056;-61
2022/05/18 03:08:48;;;;;;;27.35;20.75;;;19.80;99.90;;;20.23;68.43;101734.75;4861685;29;20167;-61
2022/05/18 03:11:18;;;;;;;25.30;19.45;;;19.80;99.90;;;20.16;68.85;101743.91;4862085;29;20056;-61
2022/05/18 03:13:46;;;;;;;29.92;21.20;;;19.80;99.90;;;20.24;69.12;101737.44;4861882;29;20076;-61
2022/05/18 03:16:15;;;;;;;27.50;21.23;;;19.80;99.90;;;20.26;69.15;101745.44;4861733;29;20129;-61
2022/05/18 03:18:43;;;;;;;27.73;22.23;;;19.90;99.90;;;20.31;69.34;101733.63;4861716;29;20411;-61
2022/05/18 03:23:59;;;;;;;29.20;22.75;;;19.90;99.90;;;20.17;70.74;101741.16;4861638;29;20073;-61
2022/05/18 03:26:27;;;;;;;27.92;23.08;;;19.80;99.90;;;20.22;71.06;101741.06;4862171;29;20049;-61
2022/05/18 03:28:57;;;;;;;30.38;23.40;;;19.80;99.90;;;20.33;70.91;101752.38;4861488;29;20084;-62
2022/05/18 03:31:26;;;;;;;30.48;23.13;;;19.90;99.90;;;20.43;70.58;101748.47;4861155;29;20528;-61
2022/05/18 03:33:56;;;;;;;31.85;24.23;;;20.00;99.90;;;20.62;69.99;101752.34;4861169;29;20049;-61
2022/05/18 03:36:24;;;;;;;30.58;24.20;;;20.10;99.90;;;20.60;69.86;101748.84;4861016;29;20072;-61
2022/05/18 03:38:53;;;;;;;30.65;23.92;;;20.20;99.90;;;20.54;69.88;101747.22;4861254;29;20059;-61
2022/05/18 03:41:23;;;;;;;32.00;24.42;;;20.20;99.90;;;20.58;69.93;101754.25;4859715;29;20689;-61
2022/05/18 03:43:51;;;;;;;31.20;22.93;;;20.10;99.90;;;20.77;69.39;101757.25;4861196;29;20053;-61
2022/05/18 03:46:19;;;;;;;32.28;23.17;;;20.30;99.90;;;20.92;68.95;101769.34;4860805;29;20061;-60
2022/05/18 03:48:48;;;;;;;34.20;24.90;;;20.40;99.90;;;20.89;68.94;101770.28;4860960;29;20092;-61
2022/05/18 03:51:17;;;;;;;32.15;24.08;;;20.50;99.90;;;20.87;68.98;101772.16;4860780;29;20064;-61
2022/05/18 03:53:46;;;;;;;31.67;23.90;;;20.50;99.90;;;20.89;69.18;101772.09;4860688;29;20456;-61
2022/05/18 03:56:15;;;;;;;32.17;24.05;;;20.50;99.90;;;20.88;69.05;101782.00;4860895;29;20461;-61
2022/05/18 03:58:45;;;;;;;32.50;23.58;;;20.50;99.90;;;20.91;69.00;101767.56;4860536;29;20451;-61
2022/05/18 04:01:14;;;;;;;33.42;22.63;;;20.50;99.90;;;21.19;68.13;101782.78;4860859;29;20365;-61
2022/05/18 04:03:46;;;;;;;32.22;23.30;;;20.70;99.90;;;21.26;67.74;101772.69;4860732;29;20045;-61
2022/05/18 04:06:17;;;;;;;31.92;23.35;;;20.80;99.90;;;21.28;67.10;101774.41;4860495;29;20140;-68
2022/05/18 04:08:45;;;;;;;;;;;20.90;99.90;;;21.23;67.18;101776.38;4861239;29;20121;-61
2022/05/18 04:11:14;;;;;;;35.60;23.63;;;20.90;99.90;;;21.40;66.76;101776.69;4860869;29;19967;-61
2022/05/18 04:13:44;;;;;;;32.35;24.13;;;21.00;99.90;;;21.47;66.39;101777.31;4860285;29;20467;-60
2022/05/18 04:16:13;;;;;;;31.67;22.77;;;21.10;99.90;;;21.51;66.26;101785.25;4861057;29;20140;-60
2022/05/18 04:18:41;;;;;;;34.10;23.40;;;21.10;99.90;;;21.56;66.13;101788.66;4860754;29;20041;-61
2022/05/18 04:21:10;;;;;;;34.42;23.02;;;21.10;99.90;;;21.51;65.96;101776.28;4860293;29;20053;-62
2022/05/18 04:23:40;;;;;;;29.73;22.25;;;21.20;99.90;;;21.70;66.52;101787.31;4860157;29;20488;-62
2022/05/18 04:26:09;;;;;;;30.60;21.80;;;21.20;99.90;;;21.75;66.27;101788.91;4859074;29;20464;-61
2022/05/18 04:28:38;;;;;;;34.10;22.60;;;21.30;99.90;;;21.71;66.11;101780.97;4860089;29;20109;-62
2022/05/18 04:31:08;;;;;;;30.75;21.98;;;21.30;99.90;;;21.86;65.63;101799.31;4860368;29;20125;-62
2022/05/18 04:33:36;;;;;;;30.00;22.83;;;21.40;99.90;;;21.92;65.85;101801.78;4860089;29;20050;-62
2022/05/18 04:36:05;;;;;;;29.58;22.23;;;21.50;99.90;;;21.95;66.18;101805.25;4860033;29;20048;-62
2022/05/18 04:38:33;;;;;;;25.98;21.23;;;21.50;99.90;;;21.93;66.80;101812.50;4860579;29;20128;-62
2022/05/18 04:41:03;;;;;;;35.38;22.40;;;21.50;99.90;;;21.95;67.42;101812.47;4859968;29;20048;-62
2022/05/18 04:43:32;;;;;;;28.95;21.33;;;21.50;99.90;;;21.91;67.75;101813.53;4858887;29;20084;-62
2022/05/18 04:46:02;;;;;;;25.08;20.67;;;21.50;99.90;;;22.03;67.85;101816.63;4860141;29;20067;-62
2022/05/18 04:48:32;;;;;;;28.52;21.83;;;21.50;99.90;;;21.98;68.17;101804.25;4859905;29;20049;-61
2022/05/18 04:51:04;;;;;;;29.23;21.50;;;21.50;99.90;;;21.99;68.78;101814.97;4859149;29;20217;-64
2022/05/18 04:53:35;;;;;;;26.05;20.88;;;21.50;99.90;;;21.92;69.49;101820.66;4860482;29;20289;-63
2022/05/18 04:56:05;;;;;;;25.92;19.25;;;21.50;99.90;;;21.90;70.03;101819.81;4859919;29;20045;-62
2022/05/18 04:58:35;;;;;;;26.58;19.70;;;21.50;99.90;;;21.73;71.36;101825.78;4860232;29;20096;-63
2022/05/18 05:01:06;;;;;;;22.92;18.25;;;21.40;99.90;;;21.61;72.63;101818.13;4860390;29;20400;-66
2022/05/18 05:03:36;;;;;;;21.15;17.52;;;21.20;99.90;;;21.71;73.17;101819.56;4860031;29;20218;-63
2022/05/18 05:06:06;;;;;;;22.13;16.48;;;21.20;99.90;;;21.68;73.84;101826.88;4859944;29;20109;-66
2022/05/18 05:08:35;;;;;;;21.63;15.55;;;21.20;99.90;;;21.70;74.26;101819.63;4860253;29;20283;-62
2022/05/18 05:11:04;;;;;;;22.30;16.40;;;21.20;99.90;;;21.75;74.52;101832.00;4860078;29;20430;-62
2022/05/18 05:13:33;;;;;;;20.05;15.90;;;21.20;99.90;;;21.69;75.02;101831.31;4860106;29;20468;-62
2022/05/18 05:16:03;;;;;;;22.80;14.88;;;21.20;99.90;;;21.64;75.38;101844.09;4859824;29;20246;-62
2022/05/18 05:18:32;;;;;;;21.00;15.70;;;21.20;99.90;;;21.72;75.53;101848.25;4859835;29;20447;-62
2022/05/18 05:21:03;;;;;;;17.90;14.90;;;21.20;99.90;;;21.70;75.78;101852.81;4859275;29;20462;-62
2022/05/18 05:23:32;;;;;;;21.23;15.80;;;21.30;99.90;;;21.81;75.97;101849.78;4863746;29;20106;-62
2022/05/18 05:26:00;;;;;;;18.92;15.15;;;21.30;99.90;;;21.90;75.75;101855.75;4863401;29;20085;-63
2022/05/18 05:28:29;;;;;;;22.48;15.00;;;21.40;99.90;;;21.78;76.40;101858.81;4863911;29;20159;-62
2022/05/18 05:31:02;;;;;;;16.48;14.63;;;21.30;99.90;;;21.75;76.95;101883.19;4863290;29;20053;-62
2022/05/18 05:33:31;;;;;;;20.73;14.50;;;21.30;99.90;;;21.63;77.53;101875.53;4863329;29;20054;-62
2022/05/18 05:35:59;;;;;;;20.85;14.80;;;21.20;99.90;;;21.56;77.87;101872.13;4863298;29;20046;-62
2022/05/18 05:38:29;;;;;;;21.77;13.32;;;21.20;99.90;;;21.56;77.90;101868.59;4863776;29;20045;-62
2022/05/18 05:40:59;;;;;;;20.27;14.35;;;21.10;99.90;;;21.49;78.44;101877.78;4863779;29;20464;-62
2022/05/18 05:43:28;;;;;;;20.77;14.65;;;21.00;99.90;;;21.55;78.41;101891.03;4863239;29;20050;-62
2022/05/18 05:45:59;;;;;;;20.00;13.02;;;21.00;99.90;;;21.61;78.29;101892.66;4863055;29;20049;-62
2022/05/18 05:48:30;;;;;;;20.17;13.10;;;21.10;99.90;;;21.71;77.98;101888.72;4863321;29;20471;-62
2022/05/18 05:50:58;;;;;;;19.27;12.95;;;21.20;99.90;;;21.61;76.88;101865.72;4861888;29;20484;-62
2022/05/18 05:53:29;;;;;;;14.30;11.18;;;21.20;99.90;;;21.48;76.50;101876.94;4861993;29;20384;-62
2022/05/18 05:56:01;;;;;;;17.63;12.38;;;21.20;99.90;;;21.65;76.39;101889.81;4863160;29;20132;-62
2022/05/18 05:58:33;;;;;;;21.73;12.82;;;21.20;99.90;;;21.76;75.74;101902.91;4863491;29;20057;-61
2022/05/18 06:01:02;;;;;;;19.27;12.52;;;21.30;99.90;;;21.62;76.03;101898.00;4861940;29;20444;-62
2022/05/18 06:03:31;;;;;;;23.45;13.02;;;21.20;99.90;;;21.58;74.70;101913.38;4861710;29;20105;-60
2022/05/18 06:06:00;;;;;;;18.70;12.75;;;21.20;99.90;;;21.02;74.20;101801.28;4862676;29;20153;-60
2022/05/18 06:08:30;;;;;;;16.95;12.13;;;21.20;99.90;;;21.61;75.25;101898.03;4862542;29;20056;-61
2022/05/18 06:10:59;;;;;;;15.30;10.40;;;21.20;99.90;;;21.48;74.61;101901.16;4862991;29;20046;-61
2022/05/18 06:13:28;;;;;;;15.85;10.25;;;21.20;99.90;;;21.54;73.88;101900.06;4862587;29;20045;-60
2022/05/18 06:15:57;;;;;;;16.88;10.18;;;21.20;99.90;;;21.41;72.99;101907.66;4862568;29;20112;-60
2022/05/18 06:18:27;;;;;;;14.63;9.35;;;21.10;99.90;;;21.48;72.81;101916.44;4863254;29;20056;-60
2022/05/18 06:20:55;;;;;;;16.23;9.82;;;21.20;99.90;;;21.42;72.74;101922.91;4862410;29;20155;-60
2022/05/18 06:23:24;;;;;;;14.48;8.95;;;21.10;99.90;;;21.42;72.71;101927.41;4862837;29;20059;-60
2022/05/18 06:25:53;;;;;;;14.27;8.95;;;21.10;99.90;;;21.34;72.39;101924.06;4862908;29;20060;-60
2022/05/18 06:28:22;;;;;;;14.83;8.77;;;21.00;99.90;;;21.30;73.10;101933.16;4861987;29;20470;-60
2022/05/18 06:30:50;;;;;;;17.70;10.27;;;21.00;99.90;;;21.34;73.04;101956.38;4862518;29;20049;-61
2022/05/18 06:33:18;;;;;;;13.05;9.57;;;21.00;99.90;;;21.41;73.02;101941.75;4862168;29;20053;-61
2022/05/18 06:35:50;;;;;;;14.43;9.02;;;21.10;99.90;;;21.35;73.89;101932.06;4862689;29;20088;-60
2022/05/18 06:38:20;;;;;;;13.05;9.63;;;21.00;99.90;;;21.17;73.79;101943.44;4862494;29;20486;-61
2022/05/18 06:43:36;;;;;;;14.25;9.50;;;20.70;99.90;;;21.23;73.62;101953.13;4862041;29;20049;-60
2022/05/18 06:46:04;;;;;;;15.33;9.73;;;20.80;99.90;;;21.53;72.81;101960.22;4860811;29;20117;-60
2022/05/18 06:48:33;;;;;;;13.15;9.63;;;21.10;99.90;;;21.61;72.10;101968.06;4861779;29;20448;-61
2022/05/18 06:51:20;;;;;;;14.70;9.48;;;21.20;99.90;;;21.79;71.39;101960.28;4862134;29;20449;-61
2022/05/18 06:53:51;;;;;;;12.98;9.20;;;21.40;99.90;;;21.88;71.06;101957.31;4862021;29;20160;-61
2022/05/18 06:56:20;;;;;;;15.50;10.13;;;21.50;99.90;;;21.78;70.96;101977.34;4860592;29;20053;-61
2022/05/18 06:58:51;;;;;;;14.05;9.70;;;21.50;99.90;;;21.91;70.32;101981.44;4862224;29;20041;-60
2022/05/18 07:01:21;;;;;;;18.77;9.68;;;21.60;99.90;;;21.84;70.24;101985.28;4861648;29;20049;-60
2022/05/18 07:03:49;;;;;;;14.75;9.52;;;21.60;99.90;;;21.60;70.33;101979.78;4861962;29;20132;-60
2022/05/18 07:06:21;;;;;;;16.50;10.02;;;21.40;99.90;;;21.52;70.96;101982.72;4860208;29;20467;-61
2022/05/18 07:08:51;;;;;;;15.50;10.38;;;21.20;99.90;;;21.49;72.08;101982.81;4861494;29;20129;-61
2022/05/18 07:11:20;;;;;;;18.85;10.60;;;21.20;99.90;;;21.42;71.49;101979.44;4861682;29;20049;-60
2022/05/18 07:13:53;;;;;;;17.35;11.07;;;21.10;99.90;;;21.46;71.68;101981.09;4861392;29;20099;-60
2022/05/18 07:16:23;;;;;;;18.70;11.48;;;21.20;99.90;;;21.52;71.49;101977.34;4861653;29;20424;-60
2022/05/18 07:18:52;;;;;;;19.70;11.70;;;21.20;99.90;;;21.41;71.64;101985.72;4861579;29;20053;-60
2022/05/18 07:21:21;;;;;;;22.23;12.75;;;21.10;99.90;;;21.36;72.06;101989.50;4861237;29;20072;-60
2022/05/18 07:23:50;;;;;;;19.05;12.90;;;21.00;99.90;;;21.39;71.76;101987.59;4861246;29;20042;-60
2022/05/18 07:26:21;;;;;;;23.02;13.38;;;21.00;99.90;;;21.37;71.24;101991.25;4861292;29;20081;-61
2022/05/18 07:28:51;;;;;;;20.58;14.98;;;21.00;99.90;;;21.36;70.93;101998.47;4861172;29;20539;-61
2022/05/18 07:31:20;;;;;;;24.33;15.70;;;21.10;99.90;;;21.39;71.35;102002.84;4861305;29;20113;-61
2022/05/18 07:34:08;;;;;;;25.27;15.48;;;21.10;99.90;;;21.62;71.58;102003.06;4861067;29;20136;-60
2022/05/18 07:36:36;;;;;;;21.13;15.05;;;21.30;99.90;;;21.49;71.51;102001.66;4861023;29;20403;-60
2022/05/18 07:39:05;;;;;;;24.83;16.10;;;21.20;99.90;;;21.47;71.42;102003.50;4861160;29;20069;-60
2022/05/18 07:41:33;;;;;;;22.75;14.73;;;21.20;99.90;;;21.58;70.94;102012.16;4860696;29;20053;-60
2022/05/18 07:44:03;;;;;;;23.85;16.20;;;21.20;99.90;;;21.69;70.20;102017.19;4860544;29;20109;-61
2022/05/18 07:46:32;;;;;;;23.38;15.52;;;21.30;99.90;;;21.77;70.05;102021.41;4860788;29;20142;-61
2022/05/18 07:49:01;;;;;;;26.08;15.90;;;21.40;99.90;;;21.64;70.21;102019.16;4860894;29;20073;-61
2022/05/18 07:51:29;;;;;;;25.95;15.30;;;21.40;99.90;;;21.73;70.23;102010.78;4861127;29;20137;-60
2022/05/18 07:53:57;;;;;;;22.63;15.68;;;21.40;99.90;;;21.90;69.74;102028.19;4859679;29;20529;-61
2022/05/18 07:56:26;;;;;;;25.27;15.93;;;21.60;99.90;;;21.81;69.76;102030.31;4860652;29;20560;-60
2022/05/18 07:58:55;;;;;;;22.63;14.23;;;21.50;99.90;;;21.88;70.50;102035.44;4860922;29;20038;-61
2022/05/18 08:01:25;;;;;;;22.00;16.08;;;21.60;99.90;;;21.84;69.45;102035.56;4860675;29;20148;-61
2022/05/18 08:03:53;;;;;;;23.30;15.77;;;21.60;99.90;;;21.33;69.80;101954.63;4860857;29;20109;-60
2022/05/18 08:06:22;;;;;;;20.50;15.23;;;21.50;99.90;;;21.91;69.34;102046.09;4860626;29;20084;-58
2022/05/18 08:08:50;;;;;;;24.02;15.15;;;21.50;99.90;;;22.06;68.87;102051.03;4860852;29;20065;-58
2022/05/18 08:16:52;;;;;;;27.45;17.23;;;22.00;99.90;;;22.42;67.51;102055.16;4860742;29;20045;-58
2022/05/18 08:19:20;;;;;;;21.37;15.00;;;22.10;99.90;;;22.48;67.09;102066.66;4860921;29;20041;-58
2022/05/18 08:21:49;;;;;;;24.52;15.70;;;22.20;99.90;;;22.57;67.31;102066.41;4860184;29;20050;-58
2022/05/18 08:24:18;;;;;;;20.77;15.27;;;22.30;99.90;;;22.67;66.47;102052.53;4859915;29;20041;-58
2022/05/18 08:26:47;;;;;;;28.20;16.27;;;22.40;99.90;;;22.70;67.13;102068.63;4859853;29;20046;-58
2022/05/18 08:29:15;;;;;;;20.63;14.85;;;22.50;99.90;;;22.88;66.84;102072.47;4860121;29;20060;-58
2022/05/18 08:31:49;;;;;;;30.60;16.60;;;22.60;99.90;;;22.66;66.75;102075.06;4860095;29;20069;-58
2022/05/18 08:34:19;;;;;;;24.00;16.05;;;22.50;99.90;;;22.90;65.58;102070.59;4860293;29;20109;-58
2022/05/18 08:36:49;;;;;;;22.75;15.52;;;22.60;99.90;;;22.83;65.44;102075.34;4860423;29;20053;-58
2022/05/18 08:39:17;;;;;;;24.65;15.32;;;22.60;99.90;;;23.17;64.95;102072.28;4860235;29;20491;-60
2022/05/18 08:41:47;;;;;;;26.50;15.93;;;22.90;99.90;;;23.12;64.54;102071.56;4859969;29;20106;-58
2022/05/18 08:44:25;;;;;;;26.30;16.83;;;22.80;99.90;;;23.07;64.80;102078.97;4860211;29;20046;-58
2022/05/18 08:47:10;;;;;;;31.23;17.35;;;22.90;99.90;;;23.02;65.43;102080.94;4859971;29;20514;-58
2022/05/18 08:49:54;;;;;;;24.35;16.42;;;22.80;99.90;;;22.91;64.99;102073.25;4860269;29;20068;-59
2022/05/18 08:52:41;;;;;;;23.15;16.27;;;22.70;99.90;;;22.87;65.51;102074.28;4860202;29;20049;-59
2022/05/18 08:55:38;;;;;;;24.63;15.73;;;22.70;99.90;;;22.93;64.81;102076.78;4859585;29;20077;-57
2022/05/18 08:58:12;;;;;;;20.73;15.43;;;22.70;99.90;;;23.09;64.15;102077.09;4860351;29;20049;-58
2022/05/18 09:00:45;;;;;;;20.77;15.43;;;22.90;99.90;;;23.18;64.03;102076.75;4860143;29;20057;-58
2022/05/18 09:03:19;;;;;;;23.98;15.05;;;22.90;99.90;;;23.04;63.99;102060.16;4859818;29;20120;-59
2022/05/18 09:05:57;;;;;;;22.33;14.90;;;22.90;99.90;;;23.29;62.82;102077.22;4860003;29;20136;-59
2022/05/18 09:08:32;;;;;;;17.20;11.60;;;23.00;99.90;;;23.37;62.45;102085.94;4860072;29;20053;-58
2022/05/18 09:11:05;;;;;;;16.67;10.73;;;23.10;99.90;;;23.43;61.81;102090.22;4860032;29;20152;-59
2022/05/18 09:13:38;;;;;;;15.95;9.25;;;23.20;99.90;;;23.73;61.18;102095.31;4858982;29;20146;-60
2022/05/18 09:16:18;;;;;;;14.65;8.80;;;23.40;99.90;;;23.46;59.24;102093.69;4859883;29;20104;-61
2022/05/18 09:18:53;;;;;;;10.30;7.03;;;23.30;99.90;;;23.59;59.13;102105.81;4859637;29;20128;-60
2022/05/18 09:21:39;;;;;;;13.95;7.82;;;23.30;99.90;;;23.77;58.40;102102.38;4860207;29;20058;-59
2022/05/18 09:24:28;;;;;;;8.10;5.68;;;23.50;99.90;;;23.98;57.99;102108.78;4860086;29;20050;-59
2022/05/18 09:27:18;;;;;;;11.75;6.47;;;23.60;99.90;;;24.27;56.80;102092.28;4859985;29;20046;-59
2022/05/18 09:29:53;;;;;;;13.98;6.68;;;24.00;99.90;;;24.60;56.35;102095.38;4859556;29;20046;-60
2022/05/18 09:32:54;;;;;;;9.70;6.53;;;24.40;99.90;;;25.02;56.40;102093.53;4859216;29;20053;-60
2022/05/18 09:35:36;;;;;;;10.85;6.97;;;24.70;99.90;;;25.12;54.36;102077.75;4859895;29;20069;-60
2022/05/18 09:38:11;;;;;;;12.13;6.70;;;25.00;99.90;;;25.41;53.59;102089.03;4859673;29;20049;-60
2022/05/18 09:40:45;;;;;;;8.60;5.90;;;25.20;99.90;;;25.35;52.16;102086.59;4858364;29;20122;-59
2022/05/18 09:43:22;;;;;;;9.63;5.78;;;25.20;99.90;;;25.37;52.01;102083.78;4859651;29;20049;-59
2022/05/18 09:45:51;;;;;;;9.98;6.57;;;25.10;99.90;;;25.54;53.04;102095.66;4859280;29;20052;-60
2022/05/18 09:48:29;;;;;;;9.82;5.63;;;25.30;99.90;;;25.69;51.67;102086.78;4859381;29;20037;-60
2022/05/18 09:50:59;;;;;;;10.45;5.65;;;25.40;99.90;;;25.89;51.14;102097.56;4859267;29;20129;-61
2022/05/18 09:53:29;;;;;;;7.47;5.93;;;25.60;99.90;;;25.97;50.71;102101.72;4859169;29;20041;-59
2022/05/18 09:55:57;;;;;;;6.97;5.32;;;25.70;99.90;;;25.85;49.59;102097.78;4859376;29;20455;-60
2022/05/18 09:58:30;;;;;;;8.10;5.18;;;25.60;99.90;;;25.43;50.24;102095.28;4859447;29;20101;-59
2022/05/18 10:09:41;;;;;;;6.95;4.43;;;25.00;99.90;;;25.23;49.82;102116.94;4863057;29;20143;-59
2022/05/18 10:12:17;;;;;;;7.68;4.45;;;25.00;99.90;;;25.10;49.45;102115.75;4862496;29;20053;-59
2022/05/18 10:14:51;;;;;;;7.72;4.57;;;24.90;99.90;;;24.89;49.65;102112.13;4862435;29;20083;-59
2022/05/18 10:17:22;;;;;;;8.00;4.25;;;24.70;99.90;;;24.43;50.23;102106.91;4862701;29;20088;-59
2022/05/18 10:19:59;;;;;;;7.53;4.32;;;24.20;99.90;;;24.16;50.92;102095.41;4862634;29;20485;-61
2022/05/18 10:22:31;;;;;;;8.73;4.35;;;24.00;99.90;;;24.46;51.25;102108.59;4862653;29;20140;-59
2022/05/18 10:25:12;;;;;;;8.38;4.82;;;24.10;99.90;;;24.47;49.76;102110.34;4862427;29;20057;-59
2022/05/18 10:27:44;;;;;;;2.08;1.98;;;24.20;99.90;;;24.34;49.62;102110.00;4862267;29;20128;-59
2022/05/18 10:30:18;;;;;;;2.90;2.80;;;24.20;99.90;;;24.17;50.94;102108.00;4862186;29;20046;-59
2022/05/18 10:32:56;;;;;;;2.17;2.08;;;24.00;99.90;;;24.06;51.09;102110.25;4862179;29;20096;-59
2022/05/18 10:35:39;;;;;;;2.40;2.30;;;23.90;99.90;;;23.97;50.76;102120.50;4862843;29;20140;-59
2022/05/18 10:38:20;;;;;;;3.25;3.03;;;23.80;99.90;;;23.72;51.04;102122.41;4862504;29;20041;-59